Terminal Aerodrome Forecast
Issued by NWS Tuscon, AZ

Home | Current Version | Previous Version | Text Only | Print | Product List | Glossary On
Versions: 1 2 3 4 5 6 7 8 9 10 11 12 13 14
000
FTUS45 KTWC 241140
TAFTUS
TAF
KTUS 241140Z 2412/2512 20011KT P6SM SCT150 BKN250
     FM241700 18006KT P6SM SCT100 SCT250
     FM242000 30012G18KT P6SM SCT100 SCT150
     FM242300 34014G22KT P6SM SCT090 BKN140
     FM250300 32007KT P6SM FEW090 SCT140 BKN250
     FM250800 15007KT P6SM SCT140 BKN250=

USA.gov is the U.S. government's official web portal to all federal, state and local government web resources and services.